Flight Track Log - Related Links

Times and Time Zones

All times are in EDT time to prevent confusion due to time zone crossing. See the N650LR flight status page for this flight to view local times or setup timezone preferences in your user account.

Time Position Orientation Groundspeed Altitude Reporting Facility
EDT Latitude Longitude Course Direction KTS MPH feet Rate Location/Type
Sat 12:21:30 PM 26.6447 -81.7186 344° North 243 280 6,500  Level Miami Center
Sat 12:22:30 PM 26.7156 -81.7214 358° North 243 280 9,400 2,900 Climbing Miami Center
Sat 12:23:30 PM 26.7928 -81.7269 356° North 254 292 12,300 2,850 Climbing Miami Center
Sat 12:24:30 PM 26.8697 -81.7347 355° North 272 313 15,100 2,650 Climbing Miami Center
Sat 12:25:00 PM 27.1432 -81.7858 347° North  Level FlightAware Approximate
Sat 12:25:30 PM 26.9531 -81.7406 356° North 284 327 17,600  Level Miami Center
Sat 12:26:00 PM 27.2432 -81.8144 344° North  Level FlightAware Approximate
Sat 12:26:30 PM 27.0486 -81.7494 355° North 303 349 19,500  Level Miami Center
Sat 12:27:30 PM 27.1375 -81.7811 342° North 316 364 21,100 1,650 Climbing Miami Center
Sat 12:28:30 PM 27.2200 -81.8103 343° North 328 377 22,800 1,850 Climbing Miami Center
Sat 12:29:30 PM 27.3250 -81.8450 344° North 348 400 24,800 1,750 Climbing Miami Center
Sat 12:30:30 PM 27.4178 -81.8794 342° North 348 400 26,300 1,400 Climbing Miami Center
Sat 12:31:30 PM 27.5189 -81.9144 343° North 359 413 27,600 1,200 Climbing Miami Center
Sat 12:32:30 PM 27.6075 -81.9464 342° North 365 420 28,700 1,029 Climbing Miami Center
Sat 12:34:25 PM 27.8172 -82.0103 345° North 401 461 30,600 1,063 Climbing Jacksonville Center
Sat 12:35:25 PM 27.9258 -82.0117 359° North 401 461 31,800 1,150 Climbing Jacksonville Center
Sat 12:36:25 PM 28.0303 -82.0414 346° North 391 450 32,900 1,000 Climbing Jacksonville Center
Sat 12:37:25 PM 28.1267 -82.1042 330° Northwest 386 444 33,800 500 Climbing Jacksonville Center
Sat 12:38:25 PM 28.2272 -82.1669 331° Northwest 398 458 33,900 50 Climbing Jacksonville Center
Sat 12:39:25 PM 28.3278 -82.2300 331° Northwest 410 472 33,900  Level Jacksonville Center
Sat 12:40:25 PM 28.4281 -82.2931 331° Northwest 410 472 33,900 100 Level Jacksonville Center
Sat 12:41:25 PM 28.5286 -82.3561 331° Northwest 415 478 34,100 600 Climbing Jacksonville Center
Sat 12:42:25 PM 28.6311 -82.4242 330° Northwest 421 484 35,100 1,000 Climbing Jacksonville Center
Sat 12:43:25 PM 28.7294 -82.4878 330° Northwest 421 484 36,100 450 Climbing Jacksonville Center
Sat 12:44:25 PM 28.8319 -82.5561 330° Northwest 421 484 36,000 200 Descending Jacksonville Center
Sat 12:45:25 PM 28.9469 -82.6269 332° Northwest 426 490 36,500 800 Climbing Jacksonville Center
Sat 12:46:25 PM 29.0472 -82.6908 331° Northwest 421 484 37,600 700 Climbing Jacksonville Center
Sat 12:47:25 PM 29.1453 -82.7547 330° Northwest 416 479 37,900 150 Climbing Jacksonville Center
Sat 12:48:25 PM 29.2414 -82.8189 330° Northwest 416 479 37,900  Level Jacksonville Center
Sat 12:49:25 PM 29.3394 -82.8806 331° Northwest 411 473 37,900  Level Jacksonville Center
Sat 12:50:25 PM 29.4356 -82.9450 330° Northwest 405 466 37,900 300 Level Jacksonville Center
Sat 12:51:25 PM 29.5378 -83.0119 330° Northwest 410 472 38,500 650 Climbing Jacksonville Center
Sat 12:52:25 PM 29.6317 -83.0694 332° Northwest 404 465 39,200 550 Climbing Jacksonville Center
Sat 12:53:25 PM 29.7381 -83.1175 339° North 393 452 39,600 350 Climbing Jacksonville Center
Sat 12:54:25 PM 29.8425 -83.1656 338° Northwest 393 452 39,900 150 Climbing Jacksonville Center
Sat 12:55:25 PM 29.9489 -83.2139 339° North 398 458 39,900  Level Jacksonville Center
Sat 12:56:25 PM 30.0592 -83.2644 338° Northwest 405 466 39,900  Level Jacksonville Center
Sat 12:57:25 PM 30.1656 -83.3131 338° Northwest 416 479 39,900  Level Jacksonville Center
Sat 12:58:25 PM 30.2739 -83.3639 338° Northwest 416 479 39,900  Level Jacksonville Center
Sat 12:59:25 PM 30.3825 -83.4128 339° North 416 479 39,900  Level Jacksonville Center
Sat 01:00:25 PM 30.4908 -83.4614 339° North 416 479 39,900  Level Jacksonville Center
Sat 01:01:25 PM 30.5969 -83.5128 337° Northwest 416 479 39,900  Level Jacksonville Center
Sat 01:02:25 PM 30.7075 -83.5544 342° North 416 479 39,900 50 Level Jacksonville Center
Sat 01:03:25 PM 30.8136 -83.5917 343° North 404 465 40,000 34 Climbing Jacksonville Center
Sat 01:05:20 PM 31.0136 -83.6658 342° North 415 478 40,000  Level Atlanta Center
Sat 01:06:20 PM 31.1222 -83.7017 344° North 415 478 40,000  Level Atlanta Center
Sat 01:07:20 PM 31.2308 -83.7403 343° North 410 472 40,000  Level Atlanta Center
Sat 01:08:20 PM 31.3394 -83.7811 342° North 410 472 40,000  Level Atlanta Center
Sat 01:09:20 PM 31.4481 -83.8197 343° North 405 466 40,000  Level Atlanta Center
Sat 01:10:20 PM 31.5586 -83.8633 341° North 405 466 40,000  Level Atlanta Center
Sat 01:11:20 PM 31.6756 -83.9047 343° North 416 479 40,000  Level Atlanta Center
Sat 01:12:20 PM 31.7903 -83.9436 344° North 426 490 40,000  Level Atlanta Center
Sat 01:13:20 PM 31.9114 -83.9850 344° North 420 483 40,000  Level Atlanta Center
Sat 01:14:20 PM 32.0222 -84.0242 343° North 415 478 40,000  Level Atlanta Center
Sat 01:15:20 PM 32.1328 -84.0658 342° North 415 478 40,000 -200 Level Atlanta Center
Sat 01:16:20 PM 32.2392 -84.1028 344° North 409 471 39,600 -500 Descending Atlanta Center
Sat 01:17:20 PM 32.3456 -84.1397 344° North 403 464 39,000 -600 Descending Atlanta Center
Sat 01:18:20 PM 32.4478 -84.1792 342° North 393 452 38,400 -500 Descending Atlanta Center
Sat 01:19:20 PM 32.5481 -84.2139 344° North 380 437 38,000 -200 Descending Atlanta Center
Sat 01:20:20 PM 32.6439 -84.2511 342° North 375 432 38,000  Level Atlanta Center
Sat 01:21:20 PM 32.7378 -84.2833 344° North 363 418 38,000 -250 Level Atlanta Center
Sat 01:22:20 PM 32.8275 -84.3181 342° North 354 407 37,500 -550 Descending Atlanta Center
Sat 01:23:20 PM 32.9192 -84.3531 342° North 348 400 36,900 -600 Descending Atlanta Center
Sat 01:24:20 PM 33.0047 -84.3856 342° North 337 388 36,300 -500 Descending Atlanta Center
Sat 01:25:20 PM 33.0819 -84.4131 343° North 332 382 35,900 -350 Descending Atlanta Center
Sat 01:26:20 PM 33.1653 -84.4458 342° North 318 366 35,600 -450 Descending Atlanta Center
Sat 01:27:20 PM 33.2467 -84.4761 343° North 306 352 35,000 -800 Descending Atlanta Center
Sat 01:28:20 PM 33.3300 -84.5039 344° North 306 352 34,000 -800 Descending Atlanta Center
Sat 01:29:20 PM 33.4156 -84.5367 342° North 311 358 33,400 -550 Descending Atlanta Center
Sat 01:30:20 PM 33.4947 -84.5669 342° North 304 350 32,900 -500 Descending Atlanta Center
Sat 01:31:20 PM 33.5822 -84.5972 344° North 304 350 32,400 -450 Descending Atlanta Center
Sat 01:32:20 PM 33.6656 -84.6278 343° North 304 350 32,000 -450 Descending Atlanta Center
Sat 01:33:20 PM 33.7489 -84.6583 343° North 299 344 31,500 -650 Descending Atlanta Center
Sat 01:34:20 PM 33.8300 -84.6889 343° North 305 351 30,700 -750 Descending Atlanta Center
Sat 01:35:20 PM 33.9156 -84.7222 342° North 311 358 30,000 -350 Descending Atlanta Center
Sat 01:36:20 PM 34.0031 -84.7556 342° North 316 364 30,000  Level Atlanta Center
Sat 01:37:20 PM 34.0883 -84.7889 342° North 321 369 30,000  Level Atlanta Center
Sat 01:38:20 PM 34.1675 -84.8169 344° North 331 381 30,000  Level Atlanta Center
Sat 01:39:20 PM 34.2569 -84.8506 343° North 331 381 30,000  Level Atlanta Center
Sat 01:40:20 PM 34.3444 -84.8817 344° North 326 375 30,000  Level Atlanta Center
Sat 01:41:20 PM 34.4381 -84.9178 342° North 326 375 30,000 -50 Level Atlanta Center
Sat 01:42:20 PM 34.5256 -84.9539 341° North 326 375 29,900 -200 Descending Atlanta Center
Sat 01:43:20 PM 34.6047 -84.9825 343° North 314 361 29,600 -350 Descending Atlanta Center
Sat 01:44:20 PM 34.6794 -85.0139 341° North 296 341 29,200 -400 Descending Atlanta Center
Sat 01:45:20 PM 34.7586 -85.0425 343° North 286 329 28,800 -500 Descending Atlanta Center
Sat 01:46:20 PM 34.8333 -85.0711 343° North 286 329 28,200 -500 Descending Atlanta Center
Sat 01:47:20 PM 34.9144 -85.1053 341° North 286 329 27,800 -450 Descending Atlanta Center
Sat 01:48:20 PM 34.9956 -85.1342 344° North 286 329 27,300 -450 Descending Atlanta Center
Sat 01:49:20 PM 35.0789 -85.1683 341° North 298 343 26,900 -450 Descending Atlanta Center
Sat 01:50:20 PM 35.1619 -85.1997 343° North 304 350 26,400 -450 Descending Atlanta Center
Sat 01:51:20 PM 35.2494 -85.2317 343° North 309 356 26,000 -200 Descending Atlanta Center
Sat 01:52:20 PM 35.3325 -85.2683 340° North 315 362 26,000  Level Atlanta Center
Sat 01:54:43 PM 35.5422 -85.3458 343° North 327 376 26,000  Level Memphis Center
Sat 01:55:43 PM 35.6314 -85.3839 341° North 332 382 26,000 50 Level Memphis Center
Sat 01:56:43 PM 35.7269 -85.4242 341° North 337 388 26,100  Climbing Memphis Center
Sat 01:57:43 PM 35.8031 -85.4531 343° North 347 399 26,000 -50 Descending Memphis Center
Sat 01:58:43 PM 35.9067 -85.4903 344° North 353 406 26,000  Level Memphis Center
Sat 01:59:43 PM 36.0019 -85.5283 342° North 353 406 26,000  Level Memphis Center
Sat 02:00:43 PM 36.0931 -85.5667 341° North 348 400 26,000  Level Memphis Center
Sat 02:01:43 PM 36.1864 -85.6047 342° North 348 400 26,000  Level Memphis Center
Sat 02:02:43 PM 36.2794 -85.6406 343° North 348 400 26,000  Level Memphis Center
Sat 02:04:01 PM 36.4078 -85.6900 343° North 350 403 26,000  Level Indianapolis Center
Sat 02:05:03 PM 36.5003 -85.7281 342° North 350 403 26,000  Level Indianapolis Center
Sat 02:06:04 PM 36.5922 -85.7644 342° North 346 398 26,000  Level Indianapolis Center
Sat 02:07:06 PM 36.6819 -85.8006 342° North 339 390 26,000  Level Indianapolis Center
Sat 02:08:07 PM 36.7794 -85.8406 342° North 337 388 26,000  Level Indianapolis Center
Sat 02:09:09 PM 36.8708 -85.8781 342° North 341 392 26,000  Level Indianapolis Center
Sat 02:10:10 PM 36.9631 -85.9150 342° North 344 396 26,000  Level Indianapolis Center
Sat 02:11:12 PM 37.0569 -85.9539 342° North 351 404 26,000  Level Indianapolis Center
Sat 02:12:14 PM 37.1497 -85.9919 342° North 352 405 26,000  Level Indianapolis Center
Sat 02:13:15 PM 37.2447 -86.0314 342° North 357 411 26,000  Level Indianapolis Center
Sat 02:14:17 PM 37.3383 -86.0689 342° North 351 404 26,000  Level Indianapolis Center
Sat 02:15:19 PM 37.4347 -86.1081 342° North 359 413 26,000  Level Indianapolis Center
Sat 02:16:20 PM 37.5342 -86.1189 355° North 357 411 26,000  Level Indianapolis Center
Sat 02:17:22 PM 37.6375 -86.1153 North 361 415 26,000  Level Indianapolis Center
Sat 02:18:23 PM 37.7400 -86.1125 North 366 421 26,000  Level Indianapolis Center
Sat 02:19:25 PM 37.8650 -86.1106 North 375 432 26,000  Level Indianapolis Center
Sat 02:20:26 PM 37.9700 -86.1072 North 376 433 26,000  Level Indianapolis Center
Sat 02:21:28 PM 38.0753 -86.1067 360° North 378 435 26,000 194 Level Indianapolis Center
Sat 02:22:30 PM 38.1811 -86.1036 North 380 437 26,400 780 Climbing Indianapolis Center
Sat 02:23:31 PM 38.2864 -86.1178 354° North 382 440 27,600 780 Climbing Indianapolis Center
Sat 02:24:33 PM 38.3933 -86.1514 346° North 394 453 28,000 195 Climbing Indianapolis Center
Sat 02:25:34 PM 38.5083 -86.1806 349° North 417 480 28,000  Level Indianapolis Center
Sat 02:26:36 PM 38.6247 -86.2022 352° North 422 486 28,000  Level Indianapolis Center
Sat 02:27:38 PM 38.7667 -86.2297 351° North 428 493 28,000  Level Indianapolis Center
Sat 02:28:39 PM 38.8853 -86.2569 350° North 431 496 28,000  Level Indianapolis Center
Sat 02:29:41 PM 38.9886 -86.2692 355° North 431 496 28,000  Level Indianapolis Center
Sat 02:30:43 PM 39.1322 -86.2850 355° North 431 496 28,000  Level Indianapolis Center
Sat 02:31:44 PM 39.2519 -86.3044 353° North 432 497 28,000 -130 Level Indianapolis Center
Sat 02:33:48 PM 39.4922 -86.3136 358° North 434 499 27,600 -389 Descending Indianapolis Center
Sat 02:34:49 PM 39.6156 -86.3283 355° North 443 510 26,800 -878 Descending Indianapolis Center
Sat 02:35:51 PM 39.7586 -86.3606 350° North 455 524 25,800 -871 Descending Indianapolis Center
Sat 02:36:53 PM 39.8728 -86.4000 345° North 458 527 25,000 -732 Descending Indianapolis Center
Sat 02:37:54 PM 39.9964 -86.4308 349° North 451 519 24,300 -488 Descending Indianapolis Center
Sat 02:38:56 PM 40.1189 -86.4522 352° North 446 513 24,000 -145 Descending Indianapolis Center
Sat 02:39:58 PM 40.2381 -86.4803 350° North 438 504 24,000  Level Indianapolis Center
Sat 02:40:59 PM 40.3822 -86.5175 349° North 438 504 24,000 -585 Level Indianapolis Center
Sat 02:42:01 PM 40.4797 -86.5869 332° Northwest 414 476 22,800 -1,887 Descending Indianapolis Center
Sat 02:43:03 PM 40.5511 -86.6986 310° West 405 466 20,100 -2,419 Descending Indianapolis Center
Sat 02:44:05 PM 40.5961 -86.8264 295° West 387 445 17,800 -2,341 Descending Indianapolis Center
Sat 02:45:06 PM 40.6361 -86.9608 291° West 392 451 15,300 -2,390 Descending Indianapolis Center
Sat 02:46:08 PM 40.6878 -87.0811 300° West 386 444 12,900 -2,032 Descending Indianapolis Center
Sat 02:47:10 PM 40.7489 -87.1831 308° West 372 428 11,100 -1,171 Descending Indianapolis Center
Sat 02:48:11 PM 40.8217 -87.2722 317° Northwest 321 369 10,500 -488 Descending Indianapolis Center
Sat 02:49:13 PM 40.8786 -87.3497 314° West 303 349 10,100 -194 Descending Indianapolis Center
Sat 02:50:15 PM 40.9339 -87.4300 312° West 298 343 10,100  Level Indianapolis Center
Sat 02:51:16 PM 40.9831 -87.5017 312° West 281 323 10,100 -49 Level Indianapolis Center
Sat 02:52:18 PM 41.0364 -87.5750 314° West 276 318 10,000 -48 Descending Indianapolis Center
Sat 02:53:20 PM 41.0903 -87.6519 313° West 280 322 10,000 -488 Level Indianapolis Center
Sat 02:54:21 PM 41.1433 -87.7289 312° West 274 315 9,000 -984 Descending Indianapolis Center

Login

Don't have an account? Register now (free) for customized features, flight alerts, and more!